KCHK

UTC

Chickasha Municipal Airport

Chickasha, Oklahoma, United States

METAR - Current

KCHK 040855Z AUTO 14008KT 10SM CLR 22/16 A2986 RMK AO2 T02220159

Observed

Oct 04 08:55 UTC

Flight Rules

VFR

Wind

140° at 8 KTS

Visibility

10 SM

Clouds

  • Clear skies

Temperature

22°C=72°F

Dew Point

16°C=61°F

Humidity

69%

Altimeter

29.86 Hg

Pressure

1011.0 hPa

METAR - Previous

KCHK 040835Z AUTO 15007KT 10SM CLR 22/16 A2986 RMK AO2 T02210156

Observed

Oct 04 08:35 UTC

Flight Rules

VFR

Wind

150° at 7 KTS

Visibility

10 SM

Clouds

  • Clear skies

Temperature

22°C=72°F

Dew Point

16°C=61°F

Humidity

69%

Altimeter

29.86 Hg

Pressure

1011.0 hPa